createdAt,value
2019-03-21T00:02:04.788Z,16.27
2019-03-21T00:04:34.336Z,26.65
2019-03-21T00:07:03.915Z,30.23
2019-03-21T00:09:33.412Z,22.45
2019-03-21T00:12:09.188Z,33.98
2019-03-21T00:14:52.786Z,23.95
2019-03-21T00:17:36.099Z,12.55
2019-03-21T00:20:17.637Z,13.93
2019-03-21T00:22:47.236Z,11.70
2019-03-21T00:25:21.404Z,5.33
2019-03-21T00:27:50.981Z,10.00
2019-03-21T00:30:25.860Z,8.95
2019-03-21T00:32:57.293Z,7.87
2019-03-21T00:35:26.878Z,7.78
2019-03-21T00:37:56.400Z,6.62
2019-03-21T00:40:39.024Z,7.45
2019-03-21T00:43:11.747Z,8.30
2019-03-21T00:45:41.355Z,7.80
2019-03-21T00:48:14.927Z,7.20
2019-03-21T00:50:44.424Z,7.55
2019-03-21T00:53:14.013Z,8.43
2019-03-21T00:55:59.470Z,9.85
2019-03-21T00:58:29.005Z,5.60
2019-03-21T01:01:05.725Z,7.92
2019-03-21T01:03:35.285Z,8.13
2019-03-21T01:06:05.194Z,7.50
2019-03-21T01:08:34.794Z,6.62
2019-03-21T01:11:04.320Z,6.80
2019-03-21T01:13:38.089Z,7.70
2019-03-21T01:16:07.574Z,10.00
2019-03-21T01:18:41.685Z,7.35
2019-03-21T01:21:11.269Z,5.50
2019-03-21T01:23:40.795Z,5.58
2019-03-21T01:26:13.588Z,6.37
2019-03-21T01:28:43.260Z,6.62
2019-03-21T01:31:12.786Z,9.43
2019-03-21T01:33:42.338Z,8.18
2019-03-21T01:36:11.839Z,10.08
2019-03-21T01:38:41.317Z,9.85
2019-03-21T01:41:17.151Z,7.95
2019-03-21T01:43:46.646Z,8.75
2019-03-21T01:46:26.944Z,7.28
2019-03-21T01:48:56.706Z,6.85
2019-03-21T01:51:26.229Z,12.00
2019-03-21T01:53:56.665Z,7.33
2019-03-21T01:56:28.657Z,9.98
2019-03-21T01:58:58.151Z,8.33
2019-03-21T02:01:27.710Z,10.43
2019-03-21T02:03:57.218Z,7.37
2019-03-21T02:06:26.701Z,6.55
2019-03-21T02:08:56.452Z,6.12
2019-03-21T02:11:26.007Z,6.60
2019-03-21T02:13:55.491Z,9.83
2019-03-21T02:16:25.067Z,9.65
2019-03-21T02:18:54.542Z,9.73
2019-03-21T02:21:24.117Z,6.25
2019-03-21T02:23:53.598Z,9.20
2019-03-21T02:26:42.461Z,9.58
2019-03-21T02:29:11.931Z,10.43
2019-03-21T02:31:41.409Z,10.45
2019-03-21T02:34:10.917Z,8.20
2019-03-21T02:36:40.397Z,8.93
2019-03-21T02:39:10.033Z,8.05
2019-03-21T02:41:39.531Z,9.15
2019-03-21T02:44:09.554Z,9.80
2019-03-21T02:46:38.995Z,11.57
2019-03-21T02:49:08.494Z,8.05
2019-03-21T02:51:38.051Z,6.78
2019-03-21T02:54:07.529Z,9.23
2019-03-21T02:56:37.046Z,7.72
2019-03-21T02:59:06.523Z,7.72
2019-03-21T03:01:36.030Z,6.42
2019-03-21T03:04:05.590Z,7.37
2019-03-21T03:06:35.061Z,7.10
2019-03-21T03:09:07.083Z,10.32
2019-03-21T03:11:36.566Z,7.55
2019-03-21T03:14:06.304Z,8.53
2019-03-21T03:16:35.786Z,5.83
2019-03-21T03:19:05.410Z,7.40
2019-03-21T03:21:34.915Z,7.20
2019-03-21T03:24:04.942Z,11.00
2019-03-21T03:26:34.436Z,8.88
2019-03-21T03:29:04.095Z,8.93
2019-03-21T03:31:33.599Z,9.33
2019-03-21T03:34:03.115Z,10.40
2019-03-21T03:36:32.585Z,9.63
2019-03-21T03:39:02.074Z,8.65
2019-03-21T03:41:31.739Z,10.45
2019-03-21T03:44:01.286Z,7.35
2019-03-21T03:46:32.323Z,8.30
2019-03-21T03:49:01.832Z,5.20
2019-03-21T03:51:31.312Z,8.38
2019-03-21T03:54:00.788Z,9.98
2019-03-21T03:56:30.360Z,7.78
2019-03-21T03:59:08.743Z,12.80
2019-03-21T04:01:38.404Z,11.03
2019-03-21T04:04:08.230Z,9.85
2019-03-21T04:06:37.804Z,9.00
2019-03-21T04:09:09.338Z,10.78
2019-03-21T04:11:38.962Z,7.25
2019-03-21T04:14:08.456Z,8.70
2019-03-21T04:16:37.953Z,8.13
2019-03-21T04:19:07.467Z,10.63
2019-03-21T04:21:36.963Z,11.10
2019-03-21T04:24:06.549Z,7.72
2019-03-21T04:26:39.285Z,6.72
2019-03-21T04:29:08.761Z,7.33
2019-03-21T04:31:38.298Z,6.95
2019-03-21T04:34:10.775Z,10.40
2019-03-21T04:36:40.342Z,10.38
2019-03-21T04:39:11.087Z,8.55
2019-03-21T04:41:44.098Z,10.63
2019-03-21T04:44:14.180Z,8.48
2019-03-21T04:46:43.762Z,8.33
2019-03-21T04:49:13.261Z,7.28
2019-03-21T04:51:42.747Z,9.90
2019-03-21T04:54:12.228Z,8.28
2019-03-21T04:56:41.746Z,6.30
2019-03-21T04:59:11.290Z,8.93
2019-03-21T05:01:40.772Z,9.60
2019-03-21T05:04:10.357Z,8.43
2019-03-21T05:06:39.847Z,9.63
2019-03-21T05:09:12.738Z,8.38
2019-03-21T05:11:42.237Z,10.88
2019-03-21T05:14:11.715Z,8.00
2019-03-21T05:16:41.224Z,9.93
2019-03-21T05:19:10.772Z,6.65
2019-03-21T05:21:40.275Z,7.85
2019-03-21T05:24:09.753Z,7.90
2019-03-21T05:26:39.259Z,7.67
2019-03-21T05:29:08.758Z,7.25
2019-03-21T05:31:38.730Z,8.00
2019-03-21T05:34:08.313Z,10.03
2019-03-21T05:36:37.805Z,7.12
2019-03-21T05:39:10.931Z,9.00
2019-03-21T05:41:40.484Z,12.95
2019-03-21T05:44:23.714Z,8.33
2019-03-21T05:46:53.269Z,8.35
2019-03-21T05:49:22.741Z,10.30
2019-03-21T05:51:52.259Z,7.28
2019-03-21T05:54:21.758Z,8.73
2019-03-21T05:56:51.270Z,9.25
2019-03-21T05:59:20.782Z,10.35
2019-03-21T06:01:50.267Z,8.13
2019-03-21T06:04:19.786Z,7.72
2019-03-21T06:07:05.996Z,6.35
2019-03-21T06:09:35.507Z,8.63
2019-03-21T06:12:07.013Z,11.20
2019-03-21T06:14:49.790Z,11.57
2019-03-21T06:17:19.256Z,9.48
2019-03-21T06:20:03.929Z,9.83
2019-03-21T06:23:04.789Z,17.85
2019-03-21T06:25:41.485Z,8.40
2019-03-21T06:28:10.965Z,8.55
2019-03-21T06:30:40.461Z,9.10
2019-03-21T06:33:09.968Z,7.45
2019-03-21T06:35:39.467Z,6.47
2019-03-21T06:38:08.958Z,7.30
2019-03-21T06:40:38.454Z,9.08
2019-03-21T06:43:08.019Z,8.43
2019-03-21T06:45:47.487Z,7.90
2019-03-21T06:48:08.846Z,8.60
2019-03-21T06:50:38.370Z,8.75
2019-03-21T06:53:07.951Z,9.63
2019-03-21T06:55:37.498Z,7.15
2019-03-21T06:58:07.082Z,9.90
2019-03-21T07:00:36.566Z,12.58
2019-03-21T07:03:06.075Z,9.93
2019-03-21T07:05:35.579Z,8.85
2019-03-21T07:08:05.202Z,9.78
2019-03-21T07:10:34.769Z,10.10
2019-03-21T07:13:04.508Z,10.10
2019-03-21T07:15:34.006Z,9.43
2019-03-21T07:18:03.523Z,10.20
2019-03-21T07:20:33.003Z,9.08
2019-03-21T07:23:02.494Z,9.23
2019-03-21T07:25:32.065Z,9.08
2019-03-21T07:28:01.571Z,8.15
2019-03-21T07:30:31.036Z,12.40
2019-03-21T07:33:00.535Z,9.35
2019-03-21T07:35:30.033Z,8.18
2019-03-21T07:37:59.536Z,10.23
2019-03-21T07:40:29.009Z,7.90
2019-03-21T07:42:58.555Z,9.10
2019-03-21T07:45:28.164Z,8.10
2019-03-21T07:47:57.781Z,6.27
2019-03-21T07:50:27.420Z,12.30
2019-03-21T07:52:56.913Z,7.70
2019-03-21T07:55:26.414Z,6.30
2019-03-21T07:57:55.976Z,7.53
2019-03-21T08:00:25.449Z,9.20
2019-03-21T08:02:55.039Z,6.60
2019-03-21T08:05:24.681Z,7.37
2019-03-21T08:07:54.277Z,8.57
2019-03-21T08:10:23.839Z,6.53
2019-03-21T08:12:53.411Z,8.40
2019-03-21T08:15:22.904Z,7.30
2019-03-21T08:17:52.418Z,7.90
2019-03-21T08:20:21.984Z,7.83
2019-03-21T08:22:51.567Z,7.27
2019-03-21T08:25:21.082Z,7.03
2019-03-21T08:27:51.819Z,7.77
2019-03-21T08:30:34.687Z,6.83
2019-03-21T08:33:05.428Z,7.80
2019-03-21T08:35:35.101Z,9.70
2019-03-21T08:38:04.922Z,9.37
2019-03-21T08:40:34.511Z,9.00
2019-03-21T08:43:04.279Z,7.87
2019-03-21T08:45:33.850Z,6.97
2019-03-21T08:48:03.775Z,5.10
2019-03-21T08:50:33.299Z,8.03
2019-03-21T08:53:02.883Z,5.67
2019-03-21T08:55:32.434Z,8.47
2019-03-21T08:58:01.944Z,6.97
2019-03-21T09:00:34.454Z,8.77
2019-03-21T09:03:02.791Z,13.70
2019-03-21T09:05:32.287Z,7.60
2019-03-21T09:08:01.808Z,12.27
2019-03-21T09:10:34.341Z,12.97
2019-03-21T09:13:02.662Z,7.27
2019-03-21T09:15:32.167Z,7.23
2019-03-21T09:18:01.665Z,8.07
2019-03-21T09:20:31.157Z,7.93
2019-03-21T09:23:00.676Z,7.60
2019-03-21T09:25:30.200Z,8.37
2019-03-21T09:28:03.286Z,6.93
2019-03-21T09:30:32.795Z,7.13
2019-03-21T09:33:02.303Z,7.87
2019-03-21T09:35:31.799Z,8.37
2019-03-21T09:38:01.321Z,9.53
2019-03-21T09:40:30.818Z,7.97
2019-03-21T09:43:03.202Z,9.07
2019-03-21T09:45:32.917Z,7.73
2019-03-21T09:48:02.424Z,8.50
2019-03-21T09:50:31.985Z,8.60
2019-03-21T09:53:01.538Z,6.57
2019-03-21T09:55:31.070Z,8.03
2019-03-21T09:58:00.642Z,7.40
2019-03-21T10:00:35.587Z,8.37
2019-03-21T10:03:06.214Z,7.77
2019-03-21T10:05:35.894Z,8.13
2019-03-21T10:08:05.924Z,9.33
2019-03-21T10:10:35.890Z,8.67
2019-03-21T10:13:24.753Z,6.70
2019-03-21T10:15:54.230Z,11.20
2019-03-21T10:18:23.746Z,8.40
2019-03-21T10:20:53.242Z,8.03
2019-03-21T10:23:22.759Z,6.73
2019-03-21T10:25:52.279Z,7.03
2019-03-21T10:28:21.807Z,10.43
2019-03-21T10:30:51.378Z,7.70
2019-03-21T10:33:20.955Z,5.73
2019-03-21T10:35:50.462Z,7.40
2019-03-21T10:38:20.015Z,5.20
2019-03-21T10:40:49.533Z,7.97
2019-03-21T10:43:19.028Z,6.30
2019-03-21T10:45:48.546Z,6.70
2019-03-21T10:48:18.027Z,8.20
2019-03-21T10:50:47.587Z,5.90
2019-03-21T10:53:17.095Z,7.10
2019-03-21T10:55:46.673Z,4.37
2019-03-21T10:58:16.258Z,3.20
2019-03-21T11:00:45.809Z,3.80
2019-03-21T11:03:15.390Z,4.93
2019-03-21T11:05:44.879Z,5.83
2019-03-21T11:08:14.531Z,3.30
2019-03-21T11:10:44.025Z,2.90
2019-03-21T11:13:13.599Z,6.37
2019-03-21T11:15:43.141Z,4.23
2019-03-21T11:18:12.700Z,3.07
2019-03-21T11:20:42.361Z,2.90
2019-03-21T11:23:11.918Z,4.07
2019-03-21T11:25:41.481Z,6.87
2019-03-21T11:28:11.275Z,4.50
2019-03-21T11:30:42.878Z,6.37
2019-03-21T11:33:12.542Z,5.10
2019-03-21T11:35:42.398Z,5.80
2019-03-21T11:38:11.917Z,6.33
2019-03-21T11:40:41.715Z,6.00
2019-03-21T11:43:11.901Z,7.83
2019-03-21T11:45:41.496Z,6.60
2019-03-21T11:48:10.974Z,7.13
2019-03-21T11:50:40.576Z,7.37
2019-03-21T11:53:10.103Z,7.60
2019-03-21T11:55:40.500Z,5.20
2019-03-21T11:58:10.008Z,5.10
2019-03-21T12:00:44.430Z,5.30
2019-03-21T12:03:12.551Z,5.10
2019-03-21T12:05:42.051Z,6.70
2019-03-21T12:08:11.572Z,5.60
2019-03-21T12:10:41.065Z,5.53
2019-03-21T12:13:10.655Z,7.87
2019-03-21T12:15:40.237Z,6.67
2019-03-21T12:18:09.823Z,4.67
2019-03-21T12:20:39.303Z,6.20
2019-03-21T12:23:08.802Z,5.93
2019-03-21T12:25:38.421Z,6.40
2019-03-21T12:28:07.976Z,5.30
2019-03-21T12:30:41.400Z,8.10
2019-03-21T12:33:11.403Z,6.73
2019-03-21T12:35:40.947Z,7.43
2019-03-21T12:38:12.025Z,5.17
2019-03-21T12:40:41.543Z,7.87
2019-03-21T12:43:11.105Z,7.10
2019-03-21T12:45:40.629Z,6.97
2019-03-21T12:48:10.239Z,6.60
2019-03-21T12:50:39.734Z,5.60
2019-03-21T12:53:09.275Z,7.10
2019-03-21T12:55:38.839Z,11.03
2019-03-21T12:58:08.353Z,6.33
2019-03-21T13:00:40.261Z,6.03
2019-03-21T13:03:10.085Z,5.80
2019-03-21T13:05:39.637Z,5.23
2019-03-21T13:08:09.216Z,5.30
2019-03-21T13:10:38.802Z,5.70
2019-03-21T13:13:08.389Z,8.67
2019-03-21T13:15:38.026Z,6.27
2019-03-21T13:18:08.845Z,8.73
2019-03-21T13:20:38.633Z,7.93
2019-03-21T13:23:08.496Z,6.90
2019-03-21T13:25:38.061Z,5.53
2019-03-21T13:28:07.723Z,5.87
2019-03-21T13:30:37.541Z,7.50
2019-03-21T13:33:07.211Z,9.10
2019-03-21T13:35:36.833Z,7.20
2019-03-21T13:38:06.506Z,4.70
2019-03-21T13:40:36.153Z,6.90
2019-03-21T13:43:05.806Z,8.53
2019-03-21T13:45:35.292Z,6.63
2019-03-21T13:48:05.274Z,7.83
2019-03-21T13:50:34.782Z,5.97
2019-03-21T13:53:09.540Z,6.57
2019-03-21T13:55:35.568Z,7.40
2019-03-21T13:58:05.209Z,5.30
2019-03-21T14:00:34.786Z,5.30
2019-03-21T14:03:04.359Z,5.03
2019-03-21T14:05:33.857Z,4.40
2019-03-21T14:08:03.484Z,5.47
2019-03-21T14:10:32.979Z,5.20
2019-03-21T14:13:04.076Z,5.40
2019-03-21T14:15:33.662Z,4.33
2019-03-21T14:18:03.137Z,4.73
2019-03-21T14:20:32.651Z,8.10
2019-03-21T14:23:02.232Z,10.07
2019-03-21T14:25:31.736Z,8.30
2019-03-21T14:28:02.738Z,7.13
2019-03-21T14:30:32.397Z,7.63
2019-03-21T14:33:01.895Z,7.53
2019-03-21T14:35:31.589Z,7.47
2019-03-21T14:38:01.118Z,5.23
2019-03-21T14:40:30.596Z,5.80
2019-03-21T14:43:00.109Z,5.63
2019-03-21T14:45:29.762Z,6.27
2019-03-21T14:47:59.311Z,4.97
2019-03-21T14:50:28.755Z,8.07
2019-03-21T14:52:58.380Z,5.47
2019-03-21T14:55:27.897Z,6.10
2019-03-21T14:57:57.420Z,6.70
2019-03-21T15:00:26.910Z,5.00
2019-03-21T15:02:56.426Z,5.93
2019-03-21T15:05:25.986Z,3.70
2019-03-21T15:07:55.499Z,6.20
2019-03-21T15:10:25.084Z,6.17
2019-03-21T15:12:54.565Z,5.87
2019-03-21T15:15:24.090Z,5.80
2019-03-21T15:17:53.613Z,4.80
2019-03-21T15:20:23.223Z,5.07
2019-03-21T15:22:52.810Z,6.67
2019-03-21T15:25:22.421Z,7.43
2019-03-21T15:27:51.896Z,4.23
2019-03-21T15:30:30.304Z,6.70
2019-03-21T15:32:59.830Z,7.17
2019-03-21T15:35:29.319Z,7.67
2019-03-21T15:37:58.843Z,9.93
2019-03-21T15:40:28.370Z,5.17
2019-03-21T15:42:57.886Z,6.30
2019-03-21T15:45:27.460Z,5.03
2019-03-21T15:47:56.961Z,5.10
2019-03-21T15:50:38.345Z,6.37
2019-03-21T15:53:08.452Z,5.77
2019-03-21T15:55:38.014Z,6.40
2019-03-21T15:58:07.595Z,7.33
2019-03-21T16:00:42.229Z,5.43
2019-03-21T16:03:13.354Z,4.77
2019-03-21T16:05:43.252Z,6.27
2019-03-21T16:08:12.894Z,4.87
2019-03-21T16:10:42.463Z,7.47
2019-03-21T16:13:12.080Z,5.53
2019-03-21T16:15:41.623Z,4.93
2019-03-21T16:18:13.829Z,5.63
2019-03-21T16:20:43.997Z,6.07
2019-03-21T16:23:13.501Z,4.63
2019-03-21T16:25:43.005Z,9.03
2019-03-21T16:28:12.566Z,8.93
2019-03-21T16:30:42.080Z,5.23
2019-03-21T16:33:11.649Z,5.17
2019-03-21T16:35:41.151Z,5.30
2019-03-21T16:38:10.658Z,3.30
2019-03-21T16:40:40.232Z,4.27
2019-03-21T16:43:09.742Z,3.53
2019-03-21T16:45:39.373Z,4.00
2019-03-21T16:48:09.415Z,5.37
2019-03-21T16:50:39.306Z,5.87
2019-03-21T16:53:08.886Z,6.90
2019-03-21T16:58:04.341Z,6.30
2019-03-21T17:00:33.957Z,4.47
2019-03-21T17:03:03.581Z,6.30
2019-03-21T17:05:33.070Z,5.33
2019-03-21T17:08:11.254Z,7.10
2019-03-21T17:10:33.858Z,5.70
2019-03-21T17:13:08.874Z,6.33
2019-03-21T17:15:38.461Z,6.40
2019-03-21T17:18:08.029Z,10.57
2019-03-21T17:20:37.474Z,7.13
2019-03-21T17:23:07.100Z,11.67
2019-03-21T17:25:36.591Z,12.13
2019-03-21T17:28:06.225Z,14.40
2019-03-21T17:30:35.813Z,12.90
2019-03-21T17:33:05.463Z,11.63
2019-03-21T17:35:34.976Z,15.23
2019-03-21T17:38:04.558Z,15.70
2019-03-21T17:40:34.094Z,17.33
2019-03-21T17:43:03.654Z,14.50
2019-03-21T17:45:33.304Z,12.77
2019-03-21T17:48:02.824Z,16.93
2019-03-21T17:50:32.377Z,14.17
2019-03-21T17:53:01.948Z,15.40
2019-03-21T17:55:31.451Z,16.67
2019-03-21T17:58:01.249Z,13.70
2019-03-21T18:00:32.352Z,16.43
2019-03-21T18:03:02.094Z,15.70
2019-03-21T18:05:31.672Z,18.37
2019-03-21T18:08:01.291Z,17.93
2019-03-21T18:10:35.521Z,22.37
2019-03-21T18:13:05.433Z,16.47
2019-03-21T18:15:34.999Z,15.13
2019-03-21T18:18:04.650Z,17.03
2019-03-21T18:20:34.177Z,13.37
2019-03-21T18:23:03.715Z,13.63
2019-03-21T18:25:33.202Z,17.23
2019-03-21T18:28:02.777Z,16.90
2019-03-21T18:30:32.301Z,20.00
2019-03-21T18:33:01.807Z,15.00
2019-03-21T18:35:31.371Z,11.60
2019-03-21T18:38:00.949Z,11.80
2019-03-21T18:40:30.545Z,14.43
2019-03-21T18:43:02.496Z,11.40
2019-03-21T18:45:31.266Z,15.97
2019-03-21T18:48:00.878Z,26.37
2019-03-21T18:50:30.495Z,26.50
2019-03-21T18:53:00.198Z,16.70
2019-03-21T18:55:29.899Z,16.50
2019-03-21T18:57:59.412Z,17.70
2019-03-21T19:00:28.996Z,16.70
2019-03-21T19:03:00.681Z,12.53
2019-03-21T19:05:29.815Z,18.60
2019-03-21T19:07:59.494Z,18.33
2019-03-21T19:10:29.034Z,18.20
2019-03-21T19:12:58.551Z,14.13
2019-03-21T19:15:28.209Z,18.10
2019-03-21T19:17:57.792Z,19.50
2019-03-21T19:20:27.308Z,18.65
2019-03-21T19:22:56.824Z,18.00
2019-03-21T19:25:26.422Z,18.98
2019-03-21T19:27:55.920Z,18.80
2019-03-21T19:30:25.535Z,17.97
2019-03-21T19:32:55.182Z,30.23
2019-03-21T19:35:24.851Z,34.43
2019-03-21T19:37:54.529Z,34.10
2019-03-21T19:40:24.146Z,29.30
2019-03-21T19:42:53.757Z,24.43
2019-03-21T19:45:23.412Z,49.08
2019-03-21T19:47:53.050Z,35.52
2019-03-21T19:50:23.602Z,28.75
2019-03-21T19:52:53.302Z,28.92
2019-03-21T19:55:30.806Z,24.20
2019-03-21T19:57:54.203Z,36.20
2019-03-21T20:00:24.537Z,50.95
2019-03-21T20:02:54.143Z,42.78
2019-03-21T20:05:23.799Z,36.50
2019-03-21T20:07:53.258Z,38.00
2019-03-21T20:10:23.789Z,31.07
2019-03-21T20:12:53.297Z,37.73
2019-03-21T20:15:23.070Z,35.03
2019-03-21T20:17:52.558Z,34.63
2019-03-21T20:20:22.224Z,36.30
2019-03-21T20:22:51.812Z,54.95
2019-03-21T20:25:21.427Z,47.85
2019-03-21T20:27:51.049Z,48.30
2019-03-21T20:30:23.825Z,39.90
2019-03-21T20:32:53.789Z,52.70
2019-03-21T20:35:23.413Z,36.08
2019-03-21T20:37:53.053Z,71.10
2019-03-21T20:40:22.629Z,33.20
2019-03-21T20:42:52.185Z,37.50
2019-03-21T20:45:22.138Z,42.60
2019-03-21T20:47:51.721Z,35.70
2019-03-21T20:50:21.354Z,28.52
2019-03-21T20:52:50.954Z,25.27
2019-03-21T20:55:20.531Z,26.48
2019-03-21T20:57:50.176Z,24.77
2019-03-21T21:00:23.016Z,25.62
2019-03-21T21:02:54.193Z,20.30
2019-03-21T21:05:23.847Z,27.73
2019-03-21T21:07:53.510Z,23.32
2019-03-21T21:10:23.096Z,19.95
2019-03-21T21:12:52.674Z,17.57
2019-03-21T21:15:22.261Z,24.77
2019-03-21T21:17:51.758Z,19.98
2019-03-21T21:20:21.403Z,24.87
2019-03-21T21:22:50.916Z,21.37
2019-03-21T21:25:20.542Z,25.27
2019-03-21T21:27:50.493Z,25.05
2019-03-21T21:30:23.617Z,25.57
2019-03-21T21:32:53.149Z,22.40
2019-03-21T21:35:22.631Z,24.35
2019-03-21T21:37:52.304Z,15.08
2019-03-21T21:40:22.020Z,21.12
2019-03-21T21:42:51.541Z,17.10
2019-03-21T21:45:21.174Z,15.90
2019-03-21T21:47:50.765Z,18.10
2019-03-21T21:50:20.425Z,21.57
2019-03-21T21:52:49.987Z,27.40
2019-03-21T21:55:19.600Z,18.48
2019-03-21T21:57:49.132Z,23.47
2019-03-21T22:00:21.398Z,16.77
2019-03-21T22:02:50.994Z,25.52
2019-03-21T22:05:20.766Z,14.55
2019-03-21T22:07:50.286Z,17.20
2019-03-21T22:10:19.906Z,12.70
2019-03-21T22:12:49.556Z,12.85
2019-03-21T22:15:21.903Z,17.85
2019-03-21T22:17:51.511Z,11.43
2019-03-21T22:20:21.082Z,12.15
2019-03-21T22:22:50.589Z,17.70
2019-03-21T22:25:20.193Z,16.82
2019-03-21T22:27:49.783Z,15.23
2019-03-21T22:30:21.047Z,14.68
2019-03-21T22:32:50.576Z,14.78
2019-03-21T22:35:20.086Z,13.22
2019-03-21T22:37:49.603Z,13.58
2019-03-21T22:40:19.725Z,10.98
2019-03-21T22:42:49.245Z,14.73
2019-03-21T22:45:19.947Z,14.55
2019-03-21T22:47:50.780Z,14.33
2019-03-21T22:50:20.443Z,13.85
2019-03-21T22:52:49.950Z,13.85
2019-03-21T22:55:19.526Z,12.90
2019-03-21T22:57:49.093Z,16.23
2019-03-21T23:00:23.520Z,15.28
2019-03-21T23:02:53.154Z,12.82
2019-03-21T23:05:22.970Z,12.73
2019-03-21T23:07:52.562Z,13.05
2019-03-21T23:10:22.123Z,8.38
2019-03-21T23:12:51.658Z,11.33
2019-03-21T23:15:21.187Z,11.78
2019-03-21T23:17:50.717Z,10.90
2019-03-21T23:20:20.371Z,8.80
2019-03-21T23:22:49.860Z,9.48
2019-03-21T23:25:19.452Z,12.65
2019-03-21T23:27:49.087Z,10.20
2019-03-21T23:30:19.787Z,10.85
2019-03-21T23:32:49.349Z,10.80
2019-03-21T23:35:18.939Z,16.82
2019-03-21T23:37:48.579Z,10.53
2019-03-21T23:40:18.199Z,9.53
2019-03-21T23:42:47.782Z,9.78
2019-03-21T23:45:19.987Z,11.03
2019-03-21T23:47:49.155Z,12.95
2019-03-21T23:50:19.772Z,11.40
2019-03-21T23:52:49.347Z,15.08
2019-03-21T23:55:18.855Z,12.07
2019-03-21T23:57:48.354Z,15.68
